Terminal Aerodrome Forecast
Issued by NWS Paducah, KY

Home | Current Version | Previous Version | Text Only | Print | Product List | Glossary Off
Versions: 1 2 3 4 5 6 7 8 9 10 11 12 13 14 15 16 17 18 19

000
FTUS43 KPAH 271700
TAFEVV
TAF
KEVV 271720Z 2718/2818 28014G22KT P6SM BKN035
     FM280100 30007KT P6SM FEW035
     FM281400 33010KT P6SM SCT035=

USA.gov is the U.S. government's official web portal to all federal, state and local government web resources and services.